sensor_id;sensor_type;location;lat;lon;timestamp;P1;durP1;ratioP1;P2;durP2;ratioP2
21569;SDS011;57598;50.888;4.746;2023-04-30T00:02:19;66.38;;;59.88;;
21569;SDS011;57598;50.888;4.746;2023-04-30T00:04:46;66.63;;;60.13;;
21569;SDS011;57598;50.888;4.746;2023-04-30T00:07:13;65.63;;;59.13;;
21569;SDS011;57598;50.888;4.746;2023-04-30T00:09:40;65.47;;;58.95;;
21569;SDS011;57598;50.888;4.746;2023-04-30T00:12:07;63.97;;;57.58;;
21569;SDS011;57598;50.888;4.746;2023-04-30T00:14:35;65.95;;;59.45;;
21569;SDS011;57598;50.888;4.746;2023-04-30T00:17:02;67.10;;;60.53;;
21569;SDS011;57598;50.888;4.746;2023-04-30T00:19:29;65.95;;;59.45;;
21569;SDS011;57598;50.888;4.746;2023-04-30T00:21:56;68.22;;;61.60;;
21569;SDS011;57598;50.888;4.746;2023-04-30T00:24:25;69.03;;;61.67;;
21569;SDS011;57598;50.888;4.746;2023-04-30T00:26:52;68.55;;;61.85;;
21569;SDS011;57598;50.888;4.746;2023-04-30T00:29:19;67.38;;;60.80;;
21569;SDS011;57598;50.888;4.746;2023-04-30T00:31:48;66.45;;;59.95;;
21569;SDS011;57598;50.888;4.746;2023-04-30T00:34:15;69.68;;;63.05;;
21569;SDS011;57598;50.888;4.746;2023-04-30T00:36:42;67.55;;;60.95;;
21569;SDS011;57598;50.888;4.746;2023-04-30T00:39:09;68.63;;;62.00;;
21569;SDS011;57598;50.888;4.746;2023-04-30T00:41:36;69.10;;;62.42;;
21569;SDS011;57598;50.888;4.746;2023-04-30T00:44:03;67.80;;;61.20;;
21569;SDS011;57598;50.888;4.746;2023-04-30T00:46:30;69.00;;;62.40;;
21569;SDS011;57598;50.888;4.746;2023-04-30T00:48:59;69.05;;;62.45;;
21569;SDS011;57598;50.888;4.746;2023-04-30T00:51:29;70.22;;;63.53;;
21569;SDS011;57598;50.888;4.746;2023-04-30T00:53:57;67.15;;;60.65;;
21569;SDS011;57598;50.888;4.746;2023-04-30T00:56:27;67.85;;;61.28;;
21569;SDS011;57598;50.888;4.746;2023-04-30T00:58:55;67.65;;;61.05;;
21569;SDS011;57598;50.888;4.746;2023-04-30T01:01:22;67.97;;;61.38;;
21569;SDS011;57598;50.888;4.746;2023-04-30T01:03:50;66.38;;;59.83;;
21569;SDS011;57598;50.888;4.746;2023-04-30T01:06:18;66.22;;;59.72;;
21569;SDS011;57598;50.888;4.746;2023-04-30T01:08:46;69.97;;;63.38;;
21569;SDS011;57598;50.888;4.746;2023-04-30T01:11:16;69.18;;;62.47;;
21569;SDS011;57598;50.888;4.746;2023-04-30T01:13:52;68.88;;;62.25;;
21569;SDS011;57598;50.888;4.746;2023-04-30T01:16:39;70.38;;;63.78;;
21569;SDS011;57598;50.888;4.746;2023-04-30T01:19:16;68.28;;;61.70;;
21569;SDS011;57598;50.888;4.746;2023-04-30T01:21:56;69.38;;;62.67;;
21569;SDS011;57598;50.888;4.746;2023-04-30T01:24:31;70.18;;;63.47;;
21569;SDS011;57598;50.888;4.746;2023-04-30T01:27:22;68.63;;;62.03;;
21569;SDS011;57598;50.888;4.746;2023-04-30T01:29:58;67.35;;;60.85;;
21569;SDS011;57598;50.888;4.746;2023-04-30T01:32:28;68.72;;;62.08;;
21569;SDS011;57598;50.888;4.746;2023-04-30T01:34:55;66.00;;;59.50;;
21569;SDS011;57598;50.888;4.746;2023-04-30T01:37:23;69.07;;;62.47;;
21569;SDS011;57598;50.888;4.746;2023-04-30T01:40:00;65.10;;;58.63;;
21569;SDS011;57598;50.888;4.746;2023-04-30T01:42:39;65.47;;;58.97;;
21569;SDS011;57598;50.888;4.746;2023-04-30T01:45:19;64.30;;;57.88;;
21569;SDS011;57598;50.888;4.746;2023-04-30T01:48:02;68.50;;;61.88;;
21569;SDS011;57598;50.888;4.746;2023-04-30T01:50:37;66.03;;;59.58;;
21569;SDS011;57598;50.888;4.746;2023-04-30T01:53:22;66.57;;;60.08;;
21569;SDS011;57598;50.888;4.746;2023-04-30T01:55:56;68.30;;;61.70;;
21569;SDS011;57598;50.888;4.746;2023-04-30T01:58:26;68.78;;;62.17;;
21569;SDS011;57598;50.888;4.746;2023-04-30T02:00:56;68.70;;;62.08;;
21569;SDS011;57598;50.888;4.746;2023-04-30T02:03:23;66.40;;;59.95;;
21569;SDS011;57598;50.888;4.746;2023-04-30T02:05:50;67.22;;;60.75;;
21569;SDS011;57598;50.888;4.746;2023-04-30T02:08:18;68.15;;;61.55;;
21569;SDS011;57598;50.888;4.746;2023-04-30T02:10:45;67.28;;;60.78;;
21569;SDS011;57598;50.888;4.746;2023-04-30T02:13:12;67.47;;;60.88;;
21569;SDS011;57598;50.888;4.746;2023-04-30T02:15:39;67.18;;;60.63;;
21569;SDS011;57598;50.888;4.746;2023-04-30T02:18:07;68.68;;;62.08;;
21569;SDS011;57598;50.888;4.746;2023-04-30T02:20:34;66.50;;;60.00;;
21569;SDS011;57598;50.888;4.746;2023-04-30T02:23:01;69.22;;;62.65;;
21569;SDS011;57598;50.888;4.746;2023-04-30T02:25:28;67.30;;;60.80;;
21569;SDS011;57598;50.888;4.746;2023-04-30T02:27:57;66.85;;;60.35;;
21569;SDS011;57598;50.888;4.746;2023-04-30T02:30:24;64.57;;;58.28;;
21569;SDS011;57598;50.888;4.746;2023-04-30T02:32:51;65.07;;;58.67;;
21569;SDS011;57598;50.888;4.746;2023-04-30T02:35:19;67.05;;;60.35;;
21569;SDS011;57598;50.888;4.746;2023-04-30T02:37:46;66.35;;;59.75;;
21569;SDS011;57598;50.888;4.746;2023-04-30T02:40:13;66.78;;;60.33;;
21569;SDS011;57598;50.888;4.746;2023-04-30T02:42:40;65.20;;;58.80;;
21569;SDS011;57598;50.888;4.746;2023-04-30T02:45:07;68.43;;;61.83;;
21569;SDS011;57598;50.888;4.746;2023-04-30T02:47:34;66.32;;;59.88;;
21569;SDS011;57598;50.888;4.746;2023-04-30T02:50:01;66.88;;;60.38;;
21569;SDS011;57598;50.888;4.746;2023-04-30T02:52:30;67.05;;;60.65;;
21569;SDS011;57598;50.888;4.746;2023-04-30T02:54:57;64.60;;;58.20;;
21569;SDS011;57598;50.888;4.746;2023-04-30T02:57:25;67.40;;;60.72;;
21569;SDS011;57598;50.888;4.746;2023-04-30T02:59:52;68.57;;;62.08;;
21569;SDS011;57598;50.888;4.746;2023-04-30T03:02:19;66.95;;;60.47;;
21569;SDS011;57598;50.888;4.746;2023-04-30T03:04:47;66.05;;;59.75;;
21569;SDS011;57598;50.888;4.746;2023-04-30T03:07:14;64.90;;;58.70;;
21569;SDS011;57598;50.888;4.746;2023-04-30T03:09:43;66.55;;;60.33;;
21569;SDS011;57598;50.888;4.746;2023-04-30T03:12:10;64.47;;;58.28;;
21569;SDS011;57598;50.888;4.746;2023-04-30T03:14:38;64.90;;;58.60;;
21569;SDS011;57598;50.888;4.746;2023-04-30T03:17:05;65.22;;;58.83;;
21569;SDS011;57598;50.888;4.746;2023-04-30T03:19:32;64.53;;;58.22;;
21569;SDS011;57598;50.888;4.746;2023-04-30T03:21:59;64.65;;;58.22;;
21569;SDS011;57598;50.888;4.746;2023-04-30T03:24:26;66.65;;;60.17;;
21569;SDS011;57598;50.888;4.746;2023-04-30T03:26:55;66.22;;;59.83;;
21569;SDS011;57598;50.888;4.746;2023-04-30T03:29:22;66.68;;;60.30;;
21569;SDS011;57598;50.888;4.746;2023-04-30T03:31:49;68.07;;;61.63;;
21569;SDS011;57598;50.888;4.746;2023-04-30T03:34:16;65.35;;;59.03;;
21569;SDS011;57598;50.888;4.746;2023-04-30T03:36:43;66.65;;;60.33;;
21569;SDS011;57598;50.888;4.746;2023-04-30T03:39:10;65.20;;;58.90;;
21569;SDS011;57598;50.888;4.746;2023-04-30T03:41:37;64.32;;;58.10;;
21569;SDS011;57598;50.888;4.746;2023-04-30T03:44:05;67.32;;;60.85;;
21569;SDS011;57598;50.888;4.746;2023-04-30T03:46:39;66.25;;;59.85;;
21569;SDS011;57598;50.888;4.746;2023-04-30T03:49:06;66.00;;;59.72;;
21569;SDS011;57598;50.888;4.746;2023-04-30T03:51:33;65.50;;;59.10;;
21569;SDS011;57598;50.888;4.746;2023-04-30T03:54:03;66.43;;;60.13;;
21569;SDS011;57598;50.888;4.746;2023-04-30T03:56:30;66.00;;;59.70;;
21569;SDS011;57598;50.888;4.746;2023-04-30T03:58:57;66.20;;;59.83;;
21569;SDS011;57598;50.888;4.746;2023-04-30T04:01:26;67.43;;;60.92;;
21569;SDS011;57598;50.888;4.746;2023-04-30T04:03:55;65.13;;;58.63;;
21569;SDS011;57598;50.888;4.746;2023-04-30T04:06:22;69.40;;;62.30;;
21569;SDS011;57598;50.888;4.746;2023-04-30T04:08:49;66.45;;;59.88;;
21569;SDS011;57598;50.888;4.746;2023-04-30T04:11:16;66.90;;;60.20;;
21569;SDS011;57598;50.888;4.746;2023-04-30T04:13:43;64.90;;;58.45;;
21569;SDS011;57598;50.888;4.746;2023-04-30T04:16:10;65.53;;;59.00;;
21569;SDS011;57598;50.888;4.746;2023-04-30T04:18:38;62.70;;;56.30;;
21569;SDS011;57598;50.888;4.746;2023-04-30T04:21:05;62.30;;;55.95;;
21569;SDS011;57598;50.888;4.746;2023-04-30T04:23:32;61.75;;;55.45;;
21569;SDS011;57598;50.888;4.746;2023-04-30T04:25:59;63.13;;;56.83;;
21569;SDS011;57598;50.888;4.746;2023-04-30T04:28:27;62.13;;;55.97;;
21569;SDS011;57598;50.888;4.746;2023-04-30T04:30:54;61.90;;;55.80;;
21569;SDS011;57598;50.888;4.746;2023-04-30T04:33:21;63.40;;;57.20;;
21569;SDS011;57598;50.888;4.746;2023-04-30T04:35:49;64.97;;;58.67;;
21569;SDS011;57598;50.888;4.746;2023-04-30T04:38:16;61.50;;;55.50;;
21569;SDS011;57598;50.888;4.746;2023-04-30T04:40:49;62.80;;;56.80;;
21569;SDS011;57598;50.888;4.746;2023-04-30T04:43:17;65.30;;;59.20;;
21569;SDS011;57598;50.888;4.746;2023-04-30T04:45:44;63.97;;;57.78;;
21569;SDS011;57598;50.888;4.746;2023-04-30T04:48:12;63.28;;;57.38;;
21569;SDS011;57598;50.888;4.746;2023-04-30T04:50:39;62.35;;;56.53;;
21569;SDS011;57598;50.888;4.746;2023-04-30T04:53:07;62.42;;;56.53;;
21569;SDS011;57598;50.888;4.746;2023-04-30T04:55:34;61.40;;;55.67;;
21569;SDS011;57598;50.888;4.746;2023-04-30T04:58:02;61.72;;;55.95;;
21569;SDS011;57598;50.888;4.746;2023-04-30T05:00:28;61.97;;;56.28;;
21569;SDS011;57598;50.888;4.746;2023-04-30T05:02:55;61.20;;;55.40;;
21569;SDS011;57598;50.888;4.746;2023-04-30T05:05:22;60.80;;;55.20;;
21569;SDS011;57598;50.888;4.746;2023-04-30T05:07:49;62.95;;;57.15;;
21569;SDS011;57598;50.888;4.746;2023-04-30T05:10:20;62.55;;;56.85;;
21569;SDS011;57598;50.888;4.746;2023-04-30T05:12:47;62.65;;;57.05;;
21569;SDS011;57598;50.888;4.746;2023-04-30T05:15:14;59.55;;;54.05;;
21569;SDS011;57598;50.888;4.746;2023-04-30T05:17:41;60.90;;;55.40;;
21569;SDS011;57598;50.888;4.746;2023-04-30T05:20:08;62.80;;;57.30;;
21569;SDS011;57598;50.888;4.746;2023-04-30T05:22:36;63.47;;;57.88;;
21569;SDS011;57598;50.888;4.746;2023-04-30T05:25:04;61.90;;;56.53;;
21569;SDS011;57598;50.888;4.746;2023-04-30T05:27:33;63.45;;;57.85;;
21569;SDS011;57598;50.888;4.746;2023-04-30T05:30:00;62.33;;;56.92;;
21569;SDS011;57598;50.888;4.746;2023-04-30T05:32:27;63.15;;;57.67;;
21569;SDS011;57598;50.888;4.746;2023-04-30T05:34:55;62.45;;;57.05;;
21569;SDS011;57598;50.888;4.746;2023-04-30T05:37:21;63.40;;;58.10;;
21569;SDS011;57598;50.888;4.746;2023-04-30T05:39:48;60.25;;;55.05;;
21569;SDS011;57598;50.888;4.746;2023-04-30T05:42:17;61.00;;;55.60;;
21569;SDS011;57598;50.888;4.746;2023-04-30T05:44:46;60.42;;;55.35;;
21569;SDS011;57598;50.888;4.746;2023-04-30T05:47:14;58.20;;;53.33;;
21569;SDS011;57598;50.888;4.746;2023-04-30T05:49:41;57.55;;;52.65;;
21569;SDS011;57598;50.888;4.746;2023-04-30T05:52:08;59.35;;;54.40;;
21569;SDS011;57598;50.888;4.746;2023-04-30T05:54:35;58.03;;;53.13;;
21569;SDS011;57598;50.888;4.746;2023-04-30T05:57:02;57.33;;;52.47;;
21569;SDS011;57598;50.888;4.746;2023-04-30T05:59:29;61.65;;;56.63;;
21569;SDS011;57598;50.888;4.746;2023-04-30T06:01:57;59.08;;;54.33;;
21569;SDS011;57598;50.888;4.746;2023-04-30T06:04:24;59.35;;;54.75;;
21569;SDS011;57598;50.888;4.746;2023-04-30T06:06:51;55.35;;;51.25;;
21569;SDS011;57598;50.888;4.746;2023-04-30T06:09:18;62.67;;;57.67;;
21569;SDS011;57598;50.888;4.746;2023-04-30T06:11:45;53.65;;;49.60;;
21569;SDS011;57598;50.888;4.746;2023-04-30T06:14:14;56.05;;;51.90;;
21569;SDS011;57598;50.888;4.746;2023-04-30T06:16:41;56.90;;;51.95;;
21569;SDS011;57598;50.888;4.746;2023-04-30T06:19:10;51.30;;;47.67;;
21569;SDS011;57598;50.888;4.746;2023-04-30T06:21:37;52.22;;;48.47;;
21569;SDS011;57598;50.888;4.746;2023-04-30T06:24:04;50.95;;;47.55;;
21569;SDS011;57598;50.888;4.746;2023-04-30T06:26:31;50.78;;;47.35;;
21569;SDS011;57598;50.888;4.746;2023-04-30T06:28:58;50.60;;;47.20;;
21569;SDS011;57598;50.888;4.746;2023-04-30T06:31:25;48.75;;;45.17;;
21569;SDS011;57598;50.888;4.746;2023-04-30T06:33:52;44.67;;;41.72;;
21569;SDS011;57598;50.888;4.746;2023-04-30T06:36:21;45.45;;;42.30;;
21569;SDS011;57598;50.888;4.746;2023-04-30T06:38:48;42.15;;;39.35;;
21569;SDS011;57598;50.888;4.746;2023-04-30T06:41:15;40.90;;;38.33;;
21569;SDS011;57598;50.888;4.746;2023-04-30T06:43:42;41.72;;;39.13;;
21569;SDS011;57598;50.888;4.746;2023-04-30T06:46:09;39.78;;;37.28;;
21569;SDS011;57598;50.888;4.746;2023-04-30T06:48:36;40.33;;;37.58;;
21569;SDS011;57598;50.888;4.746;2023-04-30T06:51:03;35.65;;;33.53;;
21569;SDS011;57598;50.888;4.746;2023-04-30T06:53:31;40.10;;;37.03;;
21569;SDS011;57598;50.888;4.746;2023-04-30T06:55:58;39.50;;;36.80;;
21569;SDS011;57598;50.888;4.746;2023-04-30T06:58:25;34.90;;;32.38;;
21569;SDS011;57598;50.888;4.746;2023-04-30T07:00:52;32.25;;;30.10;;
21569;SDS011;57598;50.888;4.746;2023-04-30T07:03:19;34.10;;;31.77;;
21569;SDS011;57598;50.888;4.746;2023-04-30T07:05:46;32.47;;;30.45;;
21569;SDS011;57598;50.888;4.746;2023-04-30T07:08:13;30.20;;;28.35;;
21569;SDS011;57598;50.888;4.746;2023-04-30T07:10:42;34.17;;;31.98;;
21569;SDS011;57598;50.888;4.746;2023-04-30T07:13:09;27.63;;;26.02;;
21569;SDS011;57598;50.888;4.746;2023-04-30T07:15:36;30.70;;;28.80;;
21569;SDS011;57598;50.888;4.746;2023-04-30T07:18:03;30.45;;;28.17;;
21569;SDS011;57598;50.888;4.746;2023-04-30T07:20:30;25.98;;;24.45;;
21569;SDS011;57598;50.888;4.746;2023-04-30T07:22:57;24.45;;;23.00;;
21569;SDS011;57598;50.888;4.746;2023-04-30T07:25:24;27.27;;;25.50;;
21569;SDS011;57598;50.888;4.746;2023-04-30T07:27:53;26.45;;;24.38;;
21569;SDS011;57598;50.888;4.746;2023-04-30T07:30:20;27.80;;;25.55;;
21569;SDS011;57598;50.888;4.746;2023-04-30T07:32:47;25.90;;;24.35;;
21569;SDS011;57598;50.888;4.746;2023-04-30T07:35:15;28.30;;;26.38;;
21569;SDS011;57598;50.888;4.746;2023-04-30T07:37:42;25.88;;;24.33;;
21569;SDS011;57598;50.888;4.746;2023-04-30T07:40:09;25.75;;;23.95;;
21569;SDS011;57598;50.888;4.746;2023-04-30T07:42:38;25.00;;;23.40;;
21569;SDS011;57598;50.888;4.746;2023-04-30T07:45:07;28.85;;;26.90;;
21569;SDS011;57598;50.888;4.746;2023-04-30T07:47:35;24.95;;;23.38;;
21569;SDS011;57598;50.888;4.746;2023-04-30T07:50:02;25.25;;;23.25;;
21569;SDS011;57598;50.888;4.746;2023-04-30T07:52:29;21.40;;;20.20;;
21569;SDS011;57598;50.888;4.746;2023-04-30T07:54:56;24.67;;;23.00;;
21569;SDS011;57598;50.888;4.746;2023-04-30T07:57:23;31.00;;;28.23;;
21569;SDS011;57598;50.888;4.746;2023-04-30T07:59:51;25.70;;;24.02;;
21569;SDS011;57598;50.888;4.746;2023-04-30T08:02:20;20.88;;;19.67;;
21569;SDS011;57598;50.888;4.746;2023-04-30T08:04:47;26.73;;;24.85;;
21569;SDS011;57598;50.888;4.746;2023-04-30T08:07:14;25.38;;;23.77;;
21569;SDS011;57598;50.888;4.746;2023-04-30T08:09:41;23.58;;;22.00;;
21569;SDS011;57598;50.888;4.746;2023-04-30T08:12:08;23.52;;;22.08;;
21569;SDS011;57598;50.888;4.746;2023-04-30T08:14:35;26.40;;;24.23;;
21569;SDS011;57598;50.888;4.746;2023-04-30T08:17:02;26.83;;;25.02;;
21569;SDS011;57598;50.888;4.746;2023-04-30T08:19:30;24.10;;;22.50;;
21569;SDS011;57598;50.888;4.746;2023-04-30T08:21:57;26.67;;;24.65;;
21569;SDS011;57598;50.888;4.746;2023-04-30T08:24:25;23.25;;;21.63;;
21569;SDS011;57598;50.888;4.746;2023-04-30T08:26:52;25.25;;;23.50;;
21569;SDS011;57598;50.888;4.746;2023-04-30T08:29:19;26.45;;;24.55;;
21569;SDS011;57598;50.888;4.746;2023-04-30T08:31:46;23.50;;;22.13;;
21569;SDS011;57598;50.888;4.746;2023-04-30T08:34:13;27.67;;;25.45;;
21569;SDS011;57598;50.888;4.746;2023-04-30T08:36:41;24.63;;;23.10;;
21569;SDS011;57598;50.888;4.746;2023-04-30T08:39:08;27.92;;;25.77;;
21569;SDS011;57598;50.888;4.746;2023-04-30T08:41:36;25.77;;;24.08;;
21569;SDS011;57598;50.888;4.746;2023-04-30T08:44:06;23.30;;;21.88;;
21569;SDS011;57598;50.888;4.746;2023-04-30T08:46:37;22.77;;;21.45;;
21569;SDS011;57598;50.888;4.746;2023-04-30T08:49:05;27.92;;;26.02;;
21569;SDS011;57598;50.888;4.746;2023-04-30T08:51:32;23.88;;;22.38;;
21569;SDS011;57598;50.888;4.746;2023-04-30T08:54:01;22.70;;;21.30;;
21569;SDS011;57598;50.888;4.746;2023-04-30T08:56:28;23.88;;;22.27;;
21569;SDS011;57598;50.888;4.746;2023-04-30T08:58:57;22.73;;;21.25;;
21569;SDS011;57598;50.888;4.746;2023-04-30T09:01:24;25.42;;;23.77;;
21569;SDS011;57598;50.888;4.746;2023-04-30T09:03:53;27.90;;;25.80;;
21569;SDS011;57598;50.888;4.746;2023-04-30T09:06:20;25.05;;;23.50;;
21569;SDS011;57598;50.888;4.746;2023-04-30T09:08:47;21.95;;;20.75;;
21569;SDS011;57598;50.888;4.746;2023-04-30T09:11:21;25.40;;;23.70;;
21569;SDS011;57598;50.888;4.746;2023-04-30T09:13:49;25.58;;;23.80;;
21569;SDS011;57598;50.888;4.746;2023-04-30T09:16:18;28.20;;;26.05;;
21569;SDS011;57598;50.888;4.746;2023-04-30T09:18:45;24.70;;;23.00;;
21569;SDS011;57598;50.888;4.746;2023-04-30T09:21:12;24.08;;;22.38;;
21569;SDS011;57598;50.888;4.746;2023-04-30T09:23:55;24.55;;;23.05;;
21569;SDS011;57598;50.888;4.746;2023-04-30T09:26:29;26.98;;;24.98;;
21569;SDS011;57598;50.888;4.746;2023-04-30T09:28:57;21.38;;;20.17;;
21569;SDS011;57598;50.888;4.746;2023-04-30T09:31:26;28.42;;;26.33;;
21569;SDS011;57598;50.888;4.746;2023-04-30T09:33:53;22.05;;;20.75;;
21569;SDS011;57598;50.888;4.746;2023-04-30T09:36:20;25.00;;;23.40;;
21569;SDS011;57598;50.888;4.746;2023-04-30T09:38:47;23.38;;;21.85;;
21569;SDS011;57598;50.888;4.746;2023-04-30T09:41:21;26.88;;;24.67;;
21569;SDS011;57598;50.888;4.746;2023-04-30T09:43:50;23.60;;;21.98;;
21569;SDS011;57598;50.888;4.746;2023-04-30T09:46:18;26.77;;;23.98;;
21569;SDS011;57598;50.888;4.746;2023-04-30T09:48:46;22.70;;;21.30;;
21569;SDS011;57598;50.888;4.746;2023-04-30T09:51:20;26.83;;;24.80;;
21569;SDS011;57598;50.888;4.746;2023-04-30T09:53:47;24.08;;;22.58;;
21569;SDS011;57598;50.888;4.746;2023-04-30T09:56:18;24.58;;;22.90;;
21569;SDS011;57598;50.888;4.746;2023-04-30T09:58:47;27.08;;;25.17;;
21569;SDS011;57598;50.888;4.746;2023-04-30T10:01:18;24.42;;;22.92;;
21569;SDS011;57598;50.888;4.746;2023-04-30T10:03:45;24.08;;;22.65;;
21569;SDS011;57598;50.888;4.746;2023-04-30T10:06:13;25.90;;;24.00;;
21569;SDS011;57598;50.888;4.746;2023-04-30T10:08:42;24.83;;;23.23;;
21569;SDS011;57598;50.888;4.746;2023-04-30T10:11:13;22.77;;;21.38;;
21569;SDS011;57598;50.888;4.746;2023-04-30T10:13:45;23.80;;;22.23;;
21569;SDS011;57598;50.888;4.746;2023-04-30T10:16:22;24.10;;;22.63;;
21569;SDS011;57598;50.888;4.746;2023-04-30T10:18:56;23.85;;;22.45;;
21569;SDS011;57598;50.888;4.746;2023-04-30T10:21:25;23.77;;;22.30;;
21569;SDS011;57598;50.888;4.746;2023-04-30T10:23:53;25.10;;;22.95;;
21569;SDS011;57598;50.888;4.746;2023-04-30T10:26:20;25.73;;;23.92;;
21569;SDS011;57598;50.888;4.746;2023-04-30T10:28:49;19.80;;;18.70;;
21569;SDS011;57598;50.888;4.746;2023-04-30T10:31:17;25.50;;;23.63;;
21569;SDS011;57598;50.888;4.746;2023-04-30T10:33:50;23.20;;;21.75;;
21569;SDS011;57598;50.888;4.746;2023-04-30T10:36:25;25.67;;;23.65;;
21569;SDS011;57598;50.888;4.746;2023-04-30T10:38:58;23.13;;;21.65;;
21569;SDS011;57598;50.888;4.746;2023-04-30T10:41:26;26.23;;;24.08;;
21569;SDS011;57598;50.888;4.746;2023-04-30T10:43:55;22.92;;;21.42;;
21569;SDS011;57598;50.888;4.746;2023-04-30T10:46:24;24.17;;;22.67;;
21569;SDS011;57598;50.888;4.746;2023-04-30T10:48:53;24.08;;;22.58;;
21569;SDS011;57598;50.888;4.746;2023-04-30T10:51:21;24.20;;;22.60;;
21569;SDS011;57598;50.888;4.746;2023-04-30T10:53:48;23.33;;;21.85;;
21569;SDS011;57598;50.888;4.746;2023-04-30T10:56:28;23.75;;;22.25;;
21569;SDS011;57598;50.888;4.746;2023-04-30T10:58:57;23.92;;;22.33;;
21569;SDS011;57598;50.888;4.746;2023-04-30T11:01:27;23.38;;;21.88;;
21569;SDS011;57598;50.888;4.746;2023-04-30T11:04:03;24.73;;;22.95;;
21569;SDS011;57598;50.888;4.746;2023-04-30T11:06:48;23.17;;;21.77;;
21569;SDS011;57598;50.888;4.746;2023-04-30T11:09:23;21.90;;;20.70;;
21569;SDS011;57598;50.888;4.746;2023-04-30T11:12:09;21.25;;;19.95;;
21569;SDS011;57598;50.888;4.746;2023-04-30T11:14:41;24.00;;;22.35;;
21569;SDS011;57598;50.888;4.746;2023-04-30T11:17:11;23.65;;;22.05;;
21569;SDS011;57598;50.888;4.746;2023-04-30T11:19:46;25.65;;;23.55;;
21569;SDS011;57598;50.888;4.746;2023-04-30T11:22:18;22.42;;;21.02;;
21569;SDS011;57598;50.888;4.746;2023-04-30T11:24:51;22.42;;;20.98;;
21569;SDS011;57598;50.888;4.746;2023-04-30T11:27:19;25.23;;;23.48;;
21569;SDS011;57598;50.888;4.746;2023-04-30T11:29:47;21.10;;;19.90;;
21569;SDS011;57598;50.888;4.746;2023-04-30T11:32:18;30.20;;;22.98;;
21569;SDS011;57598;50.888;4.746;2023-04-30T11:34:45;22.67;;;21.23;;
21569;SDS011;57598;50.888;4.746;2023-04-30T11:37:14;23.85;;;22.15;;
21569;SDS011;57598;50.888;4.746;2023-04-30T11:39:43;19.92;;;18.83;;
21569;SDS011;57598;50.888;4.746;2023-04-30T11:42:14;20.85;;;19.65;;
21569;SDS011;57598;50.888;4.746;2023-04-30T11:44:42;20.83;;;19.63;;
21569;SDS011;57598;50.888;4.746;2023-04-30T11:47:10;21.38;;;20.08;;
21569;SDS011;57598;50.888;4.746;2023-04-30T11:49:39;23.13;;;21.15;;
21569;SDS011;57598;50.888;4.746;2023-04-30T11:52:06;23.02;;;21.63;;
21569;SDS011;57598;50.888;4.746;2023-04-30T11:54:34;21.40;;;20.10;;
21569;SDS011;57598;50.888;4.746;2023-04-30T11:57:02;21.73;;;20.33;;
21569;SDS011;57598;50.888;4.746;2023-04-30T11:59:29;22.85;;;21.38;;
21569;SDS011;57598;50.888;4.746;2023-04-30T12:01:57;19.75;;;18.50;;
21569;SDS011;57598;50.888;4.746;2023-04-30T12:04:24;22.35;;;20.95;;
21569;SDS011;57598;50.888;4.746;2023-04-30T12:06:53;22.27;;;20.88;;
21569;SDS011;57598;50.888;4.746;2023-04-30T12:09:20;20.55;;;19.35;;
21569;SDS011;57598;50.888;4.746;2023-04-30T12:11:47;20.80;;;19.60;;
21569;SDS011;57598;50.888;4.746;2023-04-30T12:14:14;21.33;;;20.02;;
21569;SDS011;57598;50.888;4.746;2023-04-30T12:16:42;21.73;;;20.33;;
21569;SDS011;57598;50.888;4.746;2023-04-30T12:19:13;23.70;;;21.33;;
21569;SDS011;57598;50.888;4.746;2023-04-30T12:21:41;23.02;;;21.58;;
21569;SDS011;57598;50.888;4.746;2023-04-30T12:24:12;23.08;;;21.67;;
21569;SDS011;57598;50.888;4.746;2023-04-30T12:26:40;21.58;;;20.38;;
21569;SDS011;57598;50.888;4.746;2023-04-30T12:29:08;22.25;;;20.80;;
21569;SDS011;57598;50.888;4.746;2023-04-30T12:31:36;20.33;;;19.23;;
21569;SDS011;57598;50.888;4.746;2023-04-30T12:34:04;22.25;;;20.92;;
21569;SDS011;57598;50.888;4.746;2023-04-30T12:36:31;22.65;;;21.15;;
21569;SDS011;57598;50.888;4.746;2023-04-30T12:39:10;22.70;;;21.25;;
21569;SDS011;57598;50.888;4.746;2023-04-30T12:41:40;20.17;;;18.98;;
21569;SDS011;57598;50.888;4.746;2023-04-30T12:44:18;21.00;;;19.80;;
21569;SDS011;57598;50.888;4.746;2023-04-30T12:46:46;20.08;;;18.77;;
21569;SDS011;57598;50.888;4.746;2023-04-30T12:49:23;19.05;;;17.95;;
21569;SDS011;57598;50.888;4.746;2023-04-30T12:51:51;19.70;;;18.60;;
21569;SDS011;57598;50.888;4.746;2023-04-30T12:54:25;20.13;;;18.92;;
21569;SDS011;57598;50.888;4.746;2023-04-30T12:56:59;22.98;;;21.25;;
21569;SDS011;57598;50.888;4.746;2023-04-30T12:59:27;20.98;;;19.58;;
21569;SDS011;57598;50.888;4.746;2023-04-30T13:01:54;20.58;;;19.17;;
21569;SDS011;57598;50.888;4.746;2023-04-30T13:04:30;19.55;;;18.27;;
21569;SDS011;57598;50.888;4.746;2023-04-30T13:06:57;19.38;;;18.20;;
21569;SDS011;57598;50.888;4.746;2023-04-30T13:09:26;20.02;;;18.83;;
21569;SDS011;57598;50.888;4.746;2023-04-30T13:11:53;19.52;;;18.42;;
21569;SDS011;57598;50.888;4.746;2023-04-30T13:14:20;21.35;;;20.02;;
21569;SDS011;57598;50.888;4.746;2023-04-30T13:16:47;19.65;;;18.55;;
21569;SDS011;57598;50.888;4.746;2023-04-30T13:19:14;18.92;;;17.83;;
21569;SDS011;57598;50.888;4.746;2023-04-30T13:21:41;19.42;;;18.33;;
21569;SDS011;57598;50.888;4.746;2023-04-30T13:24:08;17.92;;;16.92;;
21569;SDS011;57598;50.888;4.746;2023-04-30T13:26:36;19.83;;;18.65;;
21569;SDS011;57598;50.888;4.746;2023-04-30T13:29:04;20.75;;;19.25;;
21569;SDS011;57598;50.888;4.746;2023-04-30T13:31:31;20.45;;;19.15;;
21569;SDS011;57598;50.888;4.746;2023-04-30T13:33:58;19.98;;;18.77;;
21569;SDS011;57598;50.888;4.746;2023-04-30T13:36:25;20.80;;;19.40;;
21569;SDS011;57598;50.888;4.746;2023-04-30T13:38:52;20.50;;;19.10;;
21569;SDS011;57598;50.888;4.746;2023-04-30T13:41:19;19.20;;;18.10;;
21569;SDS011;57598;50.888;4.746;2023-04-30T13:43:48;19.10;;;18.00;;
21569;SDS011;57598;50.888;4.746;2023-04-30T13:46:15;19.88;;;18.67;;
21569;SDS011;57598;50.888;4.746;2023-04-30T13:48:42;19.15;;;18.05;;
21569;SDS011;57598;50.888;4.746;2023-04-30T13:51:12;20.05;;;18.85;;
21569;SDS011;57598;50.888;4.746;2023-04-30T13:53:39;19.63;;;18.52;;
21569;SDS011;57598;50.888;4.746;2023-04-30T13:56:06;20.25;;;19.05;;
21569;SDS011;57598;50.888;4.746;2023-04-30T13:58:34;18.95;;;17.85;;
21569;SDS011;57598;50.888;4.746;2023-04-30T14:01:02;20.92;;;19.73;;
21569;SDS011;57598;50.888;4.746;2023-04-30T14:03:29;19.63;;;18.40;;
21569;SDS011;57598;50.888;4.746;2023-04-30T14:05:57;20.15;;;18.95;;
21569;SDS011;57598;50.888;4.746;2023-04-30T14:08:24;21.05;;;19.67;;
21569;SDS011;57598;50.888;4.746;2023-04-30T14:10:51;21.17;;;19.75;;
21569;SDS011;57598;50.888;4.746;2023-04-30T14:13:17;20.98;;;19.70;;
21569;SDS011;57598;50.888;4.746;2023-04-30T14:15:45;20.10;;;18.90;;
21569;SDS011;57598;50.888;4.746;2023-04-30T14:18:13;19.58;;;18.48;;
21569;SDS011;57598;50.888;4.746;2023-04-30T14:20:40;19.23;;;18.13;;
21569;SDS011;57598;50.888;4.746;2023-04-30T14:23:07;21.27;;;19.85;;
21569;SDS011;57598;50.888;4.746;2023-04-30T14:25:34;19.92;;;18.73;;
21569;SDS011;57598;50.888;4.746;2023-04-30T14:28:02;19.30;;;18.20;;
21569;SDS011;57598;50.888;4.746;2023-04-30T14:30:29;19.02;;;17.92;;